Impacts METAR Board
IDs:

KSAN - San Diego Intl Arpt, CA, US

Updated at: 0000 UTC 27 Apr 2018
Potential Impact None Slight Moderate High
Time 26/12Z 26/13Z 26/14Z 26/15Z 26/16Z 26/17Z 26/18Z 26/19Z 26/20Z 26/21Z 26/22Z 26/23Z 27/00Z
Temp58 58 58 59 61 62 65 66 66 67 67 66 64
Dewpt50 50 50 51 51 51 51 51 51 51 51 51 51
Altim30.01 30.02 30.04 30.06 30.07 30.06 30.06 30.07 30.05 30.05 30.03 30.01 30.00
VIS10 9 10 10 10 10 10 10 10 10 10 10 10
CIG17 17 17 18 19 200 200 -- -- -- -- -- --
CoverBKNBKNOVCOVCOVCBKNBKNSCTSCTSCTSCTSCTSCT
FltCatMVFRMVFRMVFRMVFRMVFRVFRVFRVFRVFRVFRVFRVFRVFR
WX--------------------------
WDir302036003002400270300290290290310
WSpd4 4 4 0 7 3 6 9 9 11 11 10 10
WGst-- -- -- -- -- -- -- -- -- -- -- -- --
Raw hourly METARs
KSAN 261151Z 03004KT 10SM BKN017 14/10 A3001 RMK AO2 SLP163 T01440100 10156 20144 56010
KSAN 261251Z 02004KT 9SM BKN017 BKN250 14/10 A3002 RMK AO2 SLP165 T01440100
KSAN 261351Z 36004KT 10SM OVC017 14/10 A3004 RMK AO2 SLP172 T01440100
KSAN 261451Z 00000KT 10SM OVC018 15/11 A3006 RMK AO2 SLP177 T01500106 53014
KSAN 261551Z 30007KT 10SM OVC019 16/11 A3007 RMK AO2 SLP182 T01610106
KSAN 261658Z 24003KT 10SM SCT021 BKN200 BKN250 17/11 A3006 RMK AO2 T01670106
KSAN 261751Z VRB06KT 10SM FEW021 BKN200 BKN250 18/11 A3006 RMK AO2 SLP180 T01830106 10189 20144 51003
KSAN 261851Z 27009KT 10SM FEW020 SCT200 SCT250 19/11 A3007 RMK AO2 SLP181 T01890106
KSAN 261951Z 30009KT 10SM FEW200 SCT250 19/11 A3005 RMK AO2 SLP175 T01890106
KSAN 262051Z 29011KT 10SM FEW200 SCT250 19/11 A3005 RMK AO2 SLP174 T01940106 58006
KSAN 262151Z 29011KT 10SM FEW200 SCT250 19/11 A3003 RMK AO2 SLP169 T01940106
KSAN 262251Z 29010KT 10SM FEW018 FEW200 SCT250 19/11 A3001 RMK AO2 SLP161 T01890106
KSAN 262351Z 31010KT 10SM FEW018 FEW200 SCT250 18/11 A3000 RMK AO2 SLP158 T01780106 10194 20178 56016



Page loaded:  00:53 UTC  |   05:53 PM Pacific  |   06:53 PM Mountain  |   07:53 PM Central  |   08:53 PM Eastern

 

ADVISORIES

FORECASTS

FORECASTS

OBSERVATIONS

USER TOOLS

ABOUT US